Time;durP1;ratioP1;P1;durP2;ratioP2;P2;SDS_P1;SDS_P2;PMS_P1;PMS_P2;Temp;Humidity;BMP_temperature;BMP_pressure;BME280_temperature;BME280_humidity;BME280_pressure;Samples;Min_cycle;Max_cycle;Signal;HPM_P1;HPM_P2
2023/07/12 00:01:56;;;;;;;;;;;;;;;30.72;37.38;94220.41;4994204;28;7076;-61
2023/07/12 00:04:24;;;;;;;;;;;;;;;30.72;37.13;94212.84;5015015;28;7057;-61
2023/07/12 00:06:51;;;;;;;;;;;;;;;30.75;37.57;94214.53;5029305;28;9160;-61
2023/07/12 00:09:17;;;;;;;;;;;;;;;30.76;38.53;94218.03;5048462;28;7045;-61
2023/07/12 00:12:07;;;;;;;;;;;;;;;30.79;38.48;94183.63;5032122;28;7194;-61
2023/07/12 00:14:35;;;;;;;;;;;;;;;30.77;38.01;94181.41;5030494;28;6977;-60
2023/07/12 00:17:09;;;;;;;;;;;;;;;30.75;38.40;94172.13;5027560;28;7021;-61
2023/07/12 00:19:36;;;;;;;;;;;;;;;30.76;38.01;94168.03;5042273;28;9334;-61
2023/07/12 00:22:03;;;;;;;;;;;;;;;30.71;38.15;94180.78;5024071;28;7320;-62
2023/07/12 00:24:29;;;;;;;;;;;;;;;30.73;38.41;94174.72;5028221;28;7146;-61
2023/07/12 00:27:01;;;;;;;;;;;;;;;30.72;38.19;94162.84;5031163;28;7156;-61
2023/07/12 00:29:59;;;;;;;;;;;;;;;30.71;38.64;94166.19;5030111;28;9219;-61
2023/07/12 00:32:27;;;;;;;;;;;;;;;30.71;38.73;94152.31;4983427;28;7262;-61
2023/07/12 00:35:02;;;;;;;;;;;;;;;30.67;38.27;94143.59;4981857;28;7147;-56
2023/07/12 00:37:33;;;;;;;;;;;;;;;30.66;39.11;94144.88;4980645;28;6977;-56
2023/07/12 00:40:43;;;;;;;;;;;;;;;30.70;39.23;94142.50;4964612;28;9166;-56
2023/07/12 00:43:31;;;;;;;;;;;;;;;30.66;38.62;94131.75;4983127;28;7143;-56
2023/07/12 00:46:04;;;;;;;;;;;;;;;30.66;38.07;94119.91;4977111;28;7207;-56
2023/07/12 00:48:42;;;;;;;;;;;;;;;30.61;39.22;94099.34;4980243;28;7183;-56
2023/07/12 00:51:30;;;;;;;;;;;;;;;30.61;38.39;94109.69;4968134;28;7073;-56
2023/07/12 00:54:24;;;;;;;;;;;;;;;30.60;39.50;94097.13;4965113;28;9595;-56
2023/07/12 00:57:05;;;;;;;;;;;;;;;30.60;39.49;94086.03;4967461;28;7094;-56
2023/07/12 00:59:47;;;;;;;;;;;;;;;30.55;38.64;94073.78;4973768;28;6982;-56
2023/07/12 01:02:15;;;;;;;;;;;;;;;30.54;38.89;94067.50;4967060;28;7419;-56
2023/07/12 01:05:01;;;;;;;;;;;;;;;30.52;38.50;94070.09;4979787;28;7218;-56
2023/07/12 01:07:30;;;;;;;;;;;;;;;30.52;39.35;94061.00;4993569;28;7145;-56
2023/07/12 01:09:58;;;;;;;;;;;;;;;30.52;39.01;94047.88;5014033;28;9783;-56
2023/07/12 01:12:27;;;;;;;;;;;;;;;30.50;39.10;94047.69;5044966;28;7264;-56
2023/07/12 01:14:55;;;;;;;;;;;;;;;30.51;38.98;94046.38;5044800;28;8761;-56
2023/07/12 01:17:26;;;;;;;;;;;;;;;30.51;38.75;94045.66;5027111;28;6963;-56
2023/07/12 01:19:52;;;;;;;;;;;;;;;30.51;39.24;94059.53;5027750;28;9731;-56
2023/07/12 01:22:20;;;;;;;;;;;;;;;30.50;39.12;94063.59;5027592;28;8854;-56
2023/07/12 01:24:46;;;;;;;;;;;;;;;30.48;39.11;94066.94;5036308;28;7630;-56
2023/07/12 01:27:24;;;;;;;;;;;;;;;30.48;39.26;94094.69;5030542;28;7643;-56
2023/07/12 01:30:13;;;;;;;;;;;;;;;30.50;39.19;94092.09;5029358;28;9207;-56
2023/07/12 01:32:40;;;;;;;;;;;;;;;30.47;38.28;94093.19;5042325;28;6990;-56
2023/07/12 01:35:11;;;;;;;;;;;;;;;30.46;38.31;94107.63;5029934;28;7255;-56
2023/07/12 01:37:37;;;;;;;;;;;;;;;30.47;38.60;94101.50;5029289;28;9480;-56
2023/07/12 01:40:10;;;;;;;;;;;;;;;30.45;39.13;94095.78;5047009;28;6942;-56
2023/07/12 01:42:49;;;;;;;;;;;;;;;30.45;38.62;94098.56;5047836;28;7289;-56
2023/07/12 01:45:25;;;;;;;;;;;;;;;30.44;39.38;94105.41;5032227;28;6895;-61
2023/07/12 01:48:00;;;;;;;;;;;;;;;30.47;38.63;94109.84;5029162;28;7238;-60
2023/07/12 01:50:27;;;;;;;;;;;;;;;30.45;39.38;94111.69;5047211;28;7254;-61
2023/07/12 01:53:00;;;;;;;;;;;;;;;30.48;38.90;94111.34;5043836;28;7309;-60
2023/07/12 01:55:37;;;;;;;;;;;;;;;30.50;39.10;94103.19;5047007;28;9285;-61
2023/07/12 01:58:13;;;;;;;;;;;;;;;30.48;39.67;94089.13;5032218;28;8930;-60
2023/07/12 02:01:14;;;;;;;;;;;;;;;30.50;39.58;94074.69;5046896;28;8778;-61
2023/07/12 02:03:45;;;;;;;;;;;;;;;30.49;39.36;94073.22;5030451;28;9116;-60
2023/07/12 02:06:26;;;;;;;;;;;;;;;30.46;39.06;94057.66;5048546;28;6990;-61
2023/07/12 02:08:58;;;;;;;;;;;;;;;30.43;39.10;94055.97;5033909;28;7336;-61
2023/07/12 02:11:40;;;;;;;;;;;;;;;30.41;39.35;94020.47;5050777;28;7050;-61
2023/07/12 02:14:13;;;;;;;;;;;;;;;30.38;39.62;93998.63;5034120;28;8996;-60
2023/07/12 02:16:43;;;;;;;;;;;;;;;30.38;39.07;94002.13;5035529;28;9167;-61
2023/07/12 02:19:17;;;;;;;;;;;;;;;30.38;38.83;94018.06;5033624;28;7238;-61
2023/07/12 02:21:52;;;;;;;;;;;;;;;30.41;39.28;94022.50;5051072;28;7463;-61
2023/07/12 02:24:26;;;;;;;;;;;;;;;30.42;40.01;94013.63;5047007;28;7040;-61
2023/07/12 02:27:00;;;;;;;;;;;;;;;30.42;39.47;94007.34;5033576;28;6951;-61
2023/07/12 02:29:31;;;;;;;;;;;;;;;30.40;38.92;94016.22;5031784;28;8700;-61
2023/07/12 02:32:28;;;;;;;;;;;;;;;30.41;40.05;94014.91;5035315;28;9240;-61
2023/07/12 02:35:05;;;;;;;;;;;;;;;30.39;39.25;93997.31;5034084;28;8772;-60
2023/07/12 02:37:59;;;;;;;;;;;;;;;30.39;38.77;94008.44;5048360;28;9149;-60
2023/07/12 02:40:27;;;;;;;;;;;;;;;30.38;39.99;94006.97;5046623;28;7477;-61
2023/07/12 02:43:11;;;;;;;;;;;;;;;30.38;39.63;93996.59;5046603;28;7242;-60
2023/07/12 02:45:50;;;;;;;;;;;;;;;30.37;39.42;93988.81;5030992;28;8722;-60
2023/07/12 02:48:18;;;;;;;;;;;;;;;30.38;39.55;94002.13;5028492;28;7183;-61
2023/07/12 02:50:48;;;;;;;;;;;;;;;30.35;39.25;93997.69;5029560;28;6987;-60
2023/07/12 02:53:17;;;;;;;;;;;;;;;30.36;38.91;93999.16;5027638;28;7504;-60
2023/07/12 02:55:43;;;;;;;;;;;;;;;30.34;39.36;93993.44;5046533;28;8724;-63
2023/07/12 02:58:09;;;;;;;;;;;;;;;30.31;38.98;93985.47;5030983;28;8760;-64
2023/07/12 03:00:38;;;;;;;;;;;;;;;30.32;40.20;93996.03;5030560;28;7206;-64
2023/07/12 03:03:04;;;;;;;;;;;;;;;30.31;39.33;94000.09;5038459;28;9116;-64
2023/07/12 03:05:38;;;;;;;;;;;;;;;30.26;39.44;94012.06;5031089;28;7111;-63
2023/07/12 03:08:14;;;;;;;;;;;;;;;30.27;39.23;94021.91;5032109;28;7177;-63
2023/07/12 03:10:42;;;;;;;;;;;;;;;30.26;39.27;94009.31;5050221;28;9098;-63
2023/07/12 03:13:17;;;;;;;;;;;;;;;30.24;39.50;94039.63;5050177;28;7008;-63
2023/07/12 03:15:44;;;;;;;;;;;;;;;30.25;40.15;94048.72;5033115;28;7111;-63
2023/07/12 03:18:18;;;;;;;;;;;;;;;30.27;40.00;94057.22;5032285;28;7070;-64
2023/07/12 03:21:05;;;;;;;;;;;;;;;30.26;39.09;94081.44;5034299;28;9054;-64
2023/07/12 03:23:49;;;;;;;;;;;;;;;30.27;39.55;94093.28;5048170;28;7008;-63
2023/07/12 03:26:37;;;;;;;;;;;;;;;30.25;39.00;94079.97;5033644;28;7135;-64
2023/07/12 03:29:07;;;;;;;;;;;;;;;30.29;39.87;94093.47;5033169;28;7406;-63
2023/07/12 03:31:41;;;;;;;;;;;;;;;30.32;40.17;94087.59;5050341;28;7240;-64
2023/07/12 03:34:08;;;;;;;;;;;;;;;30.29;39.60;94076.84;5048272;28;7376;-63
2023/07/12 03:36:37;;;;;;;;;;;;;;;30.27;39.65;94069.06;5047443;28;7269;-63
2023/07/12 03:39:14;;;;;;;;;;;;;;;30.29;39.99;94071.28;5030874;28;7281;-63
2023/07/12 03:41:48;;;;;;;;;;;;;;;30.27;39.29;94074.63;5032586;28;7080;-63
2023/07/12 03:44:21;;;;;;;;;;;;;;;30.28;39.16;94094.75;5032861;28;8205;-63
2023/07/12 03:46:49;;;;;;;;;;;;;;;30.28;40.05;94109.38;5033354;28;7232;-64
2023/07/12 03:49:29;;;;;;;;;;;;;;;30.27;40.07;94118.25;5049079;28;7016;-63
2023/07/12 03:51:59;;;;;;;;;;;;;;;30.26;39.04;94123.06;5049568;28;7291;-63
2023/07/12 03:54:56;;;;;;;;;;;;;;;30.28;39.96;94134.34;5048388;28;8856;-63
2023/07/12 03:57:25;;;;;;;;;;;;;;;30.28;39.62;94166.91;5030695;28;7100;-64
2023/07/12 03:59:51;;;;;;;;;;;;;;;30.27;40.08;94232.75;5033058;28;7381;-63
2023/07/12 04:02:36;;;;;;;;;;;;;;;30.28;40.04;94295.28;5028586;28;8878;-64
2023/07/12 04:05:07;;;;;;;;;;;;;;;30.23;40.27;94325.97;5047001;28;9639;-55
2023/07/12 04:08:01;;;;;;;;;;;;;;;30.20;40.52;94291.72;5046972;28;8762;-55
2023/07/12 04:11:13;;;;;;;;;;;;;;;30.17;40.75;94295.56;5029219;28;9607;-55
2023/07/12 04:13:39;;;;;;;;;;;;;;;30.13;40.25;94303.50;5048259;28;9044;-55
2023/07/12 04:16:13;;;;;;;;;;;;;;;30.10;40.91;94326.75;5032235;28;9059;-55
2023/07/12 04:19:09;;;;;;;;;;;;;;;30.09;41.37;94319.00;5031645;28;7229;-55
2023/07/12 04:21:47;;;;;;;;;;;;;;;30.08;40.96;94293.28;4967517;28;9102;-55
2023/07/12 04:24:24;;;;;;;;;;;;;;;30.05;41.50;94291.59;4981399;28;9589;-55
2023/07/12 04:26:52;;;;;;;;;;;;;;;30.10;40.69;94276.09;4977938;28;7122;-55
2023/07/12 04:29:38;;;;;;;;;;;;;;;30.06;41.53;94259.78;4984034;28;8889;-55
2023/07/12 04:32:05;;;;;;;;;;;;;;;30.01;40.31;94229.44;4963541;28;7452;-55
2023/07/12 04:34:31;;;;;;;;;;;;;;;30.01;40.36;94213.53;4963491;28;7294;-55
2023/07/12 04:37:08;;;;;;;;;;;;;;;29.99;40.56;94195.97;4979013;28;9066;-55
2023/07/12 04:39:34;;;;;;;;;;;;;;;30.00;41.19;94175.25;4979307;28;8032;-55
2023/07/12 04:42:14;;;;;;;;;;;;;;;29.99;41.51;94140.50;4964699;28;7276;-54
2023/07/12 04:44:50;;;;;;;;;;;;;;;30.03;40.79;94135.34;4984930;28;7160;-55
2023/07/12 04:47:45;;;;;;;;;;;;;;;30.04;40.96;94145.13;4985152;28;8929;-56
2023/07/12 04:50:12;;;;;;;;;;;;;;;29.99;40.49;94130.16;4938189;28;7191;-55
2023/07/12 04:52:47;;;;;;;;;;;;;;;30.01;40.93;94133.13;4927228;28;7322;-55
2023/07/12 04:55:27;;;;;;;;;;;;;;;30.02;41.67;94137.34;4924737;28;8631;-55
2023/07/12 04:58:03;;;;;;;;;;;;;;;30.05;42.00;94144.59;4946459;28;7260;-55
2023/07/12 05:00:47;;;;;;;;;;;;;;;30.09;41.19;94128.34;4957434;28;7652;-55
2023/07/12 05:03:46;;;;;;;;;;;;;;;30.15;40.21;94178.84;4980971;28;9144;-55
2023/07/12 05:06:13;;;;;;;;;;;;;;;30.17;40.48;94223.44;4893978;29;9042;-55
2023/07/12 05:08:43;;;;;;;;;;;;;;;30.21;41.23;94226.59;4901289;29;7490;-55
2023/07/12 05:11:12;;;;;;;;;;;;;;;30.21;40.99;94164.84;4886163;29;7437;-55
2023/07/12 05:13:40;;;;;;;;;;;;;;;30.21;40.66;94051.81;4907984;29;7794;-55
2023/07/12 05:16:26;;;;;;;;;;;;;;;30.19;40.05;94145.22;4911975;29;7561;-64
2023/07/12 05:19:05;;;;;;;;;;;;;;;30.17;40.31;94164.44;4897048;29;9167;-64
2023/07/12 05:21:39;;;;;;;;;;;;;;;30.17;40.27;94178.31;4912760;29;7593;-64
2023/07/12 05:24:08;;;;;;;;;;;;;;;30.18;41.35;94186.09;4910896;29;7585;-64
2023/07/12 05:26:35;;;;;;;;;;;;;;;30.17;41.39;94176.28;4939039;28;7352;-63
2023/07/12 05:29:03;;;;;;;;;;;;;;;30.19;41.40;94187.56;4965543;28;7098;-64
2023/07/12 05:31:29;;;;;;;;;;;;;;;30.18;40.58;94166.69;4965989;28;7024;-64
2023/07/12 05:33:55;;;;;;;;;;;;;;;30.20;41.31;94163.34;4965241;28;9482;-64
2023/07/12 05:36:21;;;;;;;;;;;;;;;30.24;41.21;94147.09;4963114;28;7072;-63
2023/07/12 05:38:59;;;;;;;;;;;;;;;30.25;40.16;94131.94;4966021;28;7432;-65
2023/07/12 05:41:32;;;;;;;;;;;;;;;30.22;40.09;94139.31;4969622;28;8594;-66
2023/07/12 05:44:05;;;;;;;;;;;;;;;30.22;40.86;94149.66;5026714;28;7187;-66
2023/07/12 05:46:56;;;;;;;;;;;;;;;30.23;40.12;94140.78;5047938;28;7358;-66
2023/07/12 05:49:29;;;;;;;;;;;;;;;30.20;41.20;94108.63;5034267;28;8913;-65
2023/07/12 05:52:27;;;;;;;;;;;;;;;30.22;40.34;94121.94;5049204;28;6980;-65
2023/07/12 05:55:10;;;;;;;;;;;;;;;30.21;41.26;94121.19;4984705;28;7132;-65
2023/07/12 05:57:48;;;;;;;;;;;;;;;30.20;40.75;94108.63;4982917;28;7060;-65
2023/07/12 06:00:26;;;;;;;;;;;;;;;30.22;41.35;94135.81;4966203;28;7332;-66
2023/07/12 06:03:21;;;;;;;;;;;;;;;30.21;40.40;94148.91;4984092;28;7244;-65
2023/07/12 06:06:32;;;;;;;;;;;;;;;30.21;41.53;94143.38;4901499;29;8847;-65
2023/07/12 06:09:07;;;;;;;;;;;;;;;30.23;41.17;94129.69;4915648;29;7330;-66
2023/07/12 06:11:47;;;;;;;;;;;;;;;30.21;41.42;94121.19;4912366;29;9132;-66
2023/07/12 06:14:15;;;;;;;;;;;;;;;30.24;41.42;94147.09;4915032;29;7313;-66
2023/07/12 06:16:43;;;;;;;;;;;;;;;30.23;41.25;94154.66;4915567;29;9052;-66
2023/07/12 06:19:19;;;;;;;;;;;;;;;30.22;41.71;94169.09;4898639;29;7293;-66
2023/07/12 06:21:56;;;;;;;;;;;;;;;30.25;41.69;94170.78;4914801;29;7446;-65
2023/07/12 06:24:26;;;;;;;;;;;;;;;30.21;41.76;94162.78;4899828;29;7307;-63
2023/07/12 06:26:58;;;;;;;;;;;;;;;30.25;41.78;94154.88;4913681;29;8840;-63
2023/07/12 06:29:25;;;;;;;;;;;;;;;30.25;41.48;94131.94;4914337;29;7045;-63
2023/07/12 06:31:54;;;;;;;;;;;;;;;30.24;41.66;94141.53;4937636;28;7366;-63
2023/07/12 06:34:22;;;;;;;;;;;;;;;30.26;41.72;94155.59;4956510;28;6968;-63
2023/07/12 06:36:59;;;;;;;;;;;;;;;30.23;41.28;94160.22;4956628;28;6981;-63
2023/07/12 06:39:44;;;;;;;;;;;;;;;30.25;41.83;94149.34;4958390;28;6999;-63
2023/07/12 06:42:14;;;;;;;;;;;;;;;30.26;41.53;94150.81;5000232;28;7392;-63
2023/07/12 06:44:43;;;;;;;;;;;;;;;30.24;41.56;94153.38;5032272;28;7848;-63
2023/07/12 06:47:12;;;;;;;;;;;;;;;30.28;40.89;94145.44;5033802;28;7075;-63
2023/07/12 06:49:49;;;;;;;;;;;;;;;30.29;41.02;94149.72;5030855;28;8987;-63
2023/07/12 06:52:25;;;;;;;;;;;;;;;30.27;41.74;94138.44;5047089;28;10825;-63
2023/07/12 06:54:53;;;;;;;;;;;;;;;30.27;40.92;94140.47;5029723;28;7255;-63
2023/07/12 06:57:26;;;;;;;;;;;;;;;30.27;40.97;94146.75;5041150;28;7811;-63
2023/07/12 06:59:55;;;;;;;;;;;;;;;30.23;42.01;94146.34;5029394;28;7390;-63
2023/07/12 07:02:21;;;;;;;;;;;;;;;30.27;41.37;94149.53;5031029;28;7247;-63
2023/07/12 07:04:49;;;;;;;;;;;;;;;30.23;41.61;94151.88;5026284;28;7455;-63
2023/07/12 07:07:17;;;;;;;;;;;;;;;30.26;41.99;94170.22;5025985;28;8770;-63
2023/07/12 07:09:43;;;;;;;;;;;;;;;30.27;41.53;94174.50;5045550;28;7580;-63
2023/07/12 07:12:15;;;;;;;;;;;;;;;30.27;41.26;94163.41;5030989;28;7239;-63
2023/07/12 07:14:50;;;;;;;;;;;;;;;30.28;41.85;94173.19;5029909;28;8767;-63
2023/07/12 07:17:17;;;;;;;;;;;;;;;30.29;42.34;94165.63;5031186;28;7493;-63
2023/07/12 07:19:47;;;;;;;;;;;;;;;30.31;42.19;94163.06;5030686;28;9155;-63
2023/07/12 07:22:15;;;;;;;;;;;;;;;30.27;41.70;94141.19;5025257;28;9025;-63
2023/07/12 07:24:51;;;;;;;;;;;;;;;30.31;42.73;94141.63;5045638;28;7234;-63
2023/07/12 07:27:19;;;;;;;;;;;;;;;30.29;41.82;94152.50;5042744;28;9063;-63
2023/07/12 07:29:45;;;;;;;;;;;;;;;30.32;41.64;94148.63;5028082;28;7346;-63
2023/07/12 07:32:17;;;;;;;;;;;;;;;30.32;41.98;94159.00;5025849;28;9492;-63
2023/07/12 07:34:46;;;;;;;;;;;;;;;30.36;41.83;94168.44;5038872;28;7193;-61
2023/07/12 07:37:12;;;;;;;;;;;;;;;30.33;42.26;94166.78;5040166;28;7304;-61
2023/07/12 07:39:38;;;;;;;;;;;;;;;30.31;42.62;94174.16;5021442;28;7504;-61
2023/07/12 07:42:06;;;;;;;;;;;;;;;30.33;41.85;94186.22;5028119;28;6945;-61
2023/07/12 07:44:33;;;;;;;;;;;;;;;30.33;42.56;94188.22;5044608;28;7274;-62
2023/07/12 07:47:18;;;;;;;;;;;;;;;30.33;41.71;94188.22;5046739;28;7163;-62
2023/07/12 07:49:55;;;;;;;;;;;;;;;30.33;41.89;94199.34;5029830;28;7226;-62
2023/07/12 07:52:29;;;;;;;;;;;;;;;30.35;42.02;94196.75;5029909;28;7260;-62
2023/07/12 07:54:58;;;;;;;;;;;;;;;30.34;42.13;94196.00;5047589;28;7837;-63
2023/07/12 07:57:32;;;;;;;;;;;;;;;30.33;42.39;94200.09;5031425;28;9011;-62
2023/07/12 08:00:03;;;;;;;;;;;;;;;30.36;42.30;94189.91;5030761;28;7300;-62
2023/07/12 08:02:33;;;;;;;;;;;;;;;30.36;41.65;94179.53;5031644;28;7119;-61
2023/07/12 08:05:00;;;;;;;;;;;;;;;30.36;42.22;94185.09;5029252;28;9090;-62
2023/07/12 08:07:35;;;;;;;;;;;;;;;30.36;41.87;94182.31;5027747;28;7172;-62
2023/07/12 08:10:11;;;;;;;;;;;;;;;30.37;41.63;94194.91;5041879;28;8780;-62
2023/07/12 08:12:48;;;;;;;;;;;;;;;30.36;42.78;94198.97;5029584;28;8034;-62
2023/07/12 08:15:23;;;;;;;;;;;;;;;30.36;42.81;94193.41;5025614;28;7314;-62
2023/07/12 08:17:51;;;;;;;;;;;;;;;30.37;41.61;94199.72;5041058;28;6985;-62
2023/07/12 08:20:21;;;;;;;;;;;;;;;30.37;41.71;94200.47;5040912;28;6945;-63
2023/07/12 08:22:52;;;;;;;;;;;;;;;30.38;41.51;94206.75;5022660;28;7641;-63
2023/07/12 08:25:22;;;;;;;;;;;;;;;30.39;42.36;94208.25;5041049;28;7402;-62
2023/07/12 08:27:48;;;;;;;;;;;;;;;30.38;41.77;94207.50;5041226;28;7905;-62
2023/07/12 08:30:47;;;;;;;;;;;;;;;30.39;41.93;94219.34;5027408;28;7224;-62
2023/07/12 08:33:15;;;;;;;;;;;;;;;30.37;41.77;94211.56;5028977;28;7265;-62
2023/07/12 08:35:49;;;;;;;;;;;;;;;30.40;41.89;94215.28;5031560;28;8994;-62
2023/07/12 08:38:31;;;;;;;;;;;;;;;30.39;41.67;94206.22;5029544;28;7850;-61
2023/07/12 08:41:15;;;;;;;;;;;;;;;30.42;41.84;94213.47;5028713;28;9455;-62
2023/07/12 08:43:44;;;;;;;;;;;;;;;30.41;41.43;94214.72;5027747;28;9054;-62
2023/07/12 08:46:22;;;;;;;;;;;;;;;30.41;41.74;94225.84;5042502;28;7529;-62
2023/07/12 08:48:57;;;;;;;;;;;;;;;30.41;41.41;94223.06;5030634;28;7360;-62
2023/07/12 08:51:59;;;;;;;;;;;;;;;30.42;42.38;94224.56;5029855;28;9112;-62
2023/07/12 08:54:36;;;;;;;;;;;;;;;30.43;41.69;94220.47;5042878;28;7227;-62
2023/07/12 08:57:11;;;;;;;;;;;;;;;30.44;42.43;94227.53;5031446;28;7243;-62
2023/07/12 08:59:38;;;;;;;;;;;;;;;30.45;41.35;94217.16;5042743;28;9223;-62
2023/07/12 09:02:19;;;;;;;;;;;;;;;30.42;42.30;94219.00;5047131;28;7604;-61
2023/07/12 09:04:48;;;;;;;;;;;;;;;30.42;41.65;94212.72;5029773;28;7054;-61
2023/07/12 09:07:35;;;;;;;;;;;;;;;30.41;42.38;94217.50;5025576;28;6980;-61
2023/07/12 09:10:34;;;;;;;;;;;;;;;30.43;42.18;94206.59;5024497;28;7102;-62
2023/07/12 09:13:12;;;;;;;;;;;;;;;30.41;41.83;94195.31;4983365;28;7268;-62
2023/07/12 09:16:19;;;;;;;;;;;;;;;30.44;41.46;94199.78;4973462;28;8670;-62
2023/07/12 09:18:52;;;;;;;;;;;;;;;30.45;41.38;94197.72;4960066;28;6987;-62
2023/07/12 09:21:31;;;;;;;;;;;;;;;30.46;41.93;94202.75;4959718;28;6987;-61
2023/07/12 09:24:10;;;;;;;;;;;;;;;30.46;41.88;94213.84;4961859;28;8824;-63
2023/07/12 09:26:38;;;;;;;;;;;;;;;30.46;42.13;94230.50;4932140;28;7459;-62
2023/07/12 09:29:36;;;;;;;;;;;;;;;30.46;42.16;94226.97;4948552;28;7259;-63
2023/07/12 09:32:21;;;;;;;;;;;;;;;30.47;42.31;94228.47;4891792;29;7380;-62
2023/07/12 09:38:08;;;;;;;;;;;;;;;30.48;42.03;94224.38;4905702;29;9034;-62
2023/07/12 09:40:45;;;;;;;;;;;;;;;30.45;41.95;94208.81;4907132;29;7009;-62
2023/07/12 09:43:23;;;;;;;;;;;;;;;30.47;42.12;94223.63;4892524;29;7364;-63
2023/07/12 09:46:17;;;;;;;;;;;;;;;30.47;42.62;94220.88;4890233;29;9655;-62
2023/07/12 09:48:56;;;;;;;;;;;;;;;30.46;41.68;94213.84;4905559;29;7828;-62
2023/07/12 09:55:04;;;;;;;;;;;;;;;30.46;41.73;94219.38;4911569;29;7239;-61
2023/07/12 09:58:09;;;;;;;;;;;;;;;30.48;41.63;94224.38;4912252;29;9207;-62
2023/07/12 10:00:48;;;;;;;;;;;;;;;30.47;42.46;94250.66;4925239;29;8195;-62
2023/07/12 10:03:48;;;;;;;;;;;;;;;30.47;42.02;94267.31;4924373;29;7423;-61
2023/07/12 10:06:20;;;;;;;;;;;;;;;30.47;41.58;94243.06;4928635;28;7412;-61
2023/07/12 10:09:38;;;;;;;;;;;;;;;30.48;41.42;94216.06;4955785;28;8699;-61
2023/07/12 10:12:29;;;;;;;;;;;;;;;30.48;41.27;94208.47;4960110;28;8027;-61
2023/07/12 10:14:55;;;;;;;;;;;;;;;30.49;41.34;94201.63;4964068;28;9092;-62
2023/07/12 10:17:31;;;;;;;;;;;;;;;30.49;41.49;94196.06;4962624;28;7082;-62
2023/07/12 10:19:58;;;;;;;;;;;;;;;30.48;41.23;94193.84;4946268;28;7192;-62
2023/07/12 10:22:38;;;;;;;;;;;;;;;30.51;41.77;94178.88;4962042;28;9310;-62
2023/07/12 10:25:23;;;;;;;;;;;;;;;30.52;41.84;94177.59;4959604;28;9048;-62
2023/07/12 10:28:17;;;;;;;;;;;;;;;30.50;41.06;94178.13;4962399;28;8544;-62
2023/07/12 10:31:00;;;;;;;;;;;;;;;30.50;41.94;94172.59;4964554;28;7334;-62
2023/07/12 10:33:45;;;;;;;;;;;;;;;30.49;41.77;94173.88;4995825;28;7467;-62
2023/07/12 10:36:23;;;;;;;;;;;;;;;30.50;42.39;94214.22;5011357;28;7725;-62
2023/07/12 10:38:59;;;;;;;;;;;;;;;30.49;42.06;94223.81;5012245;28;7690;-62
2023/07/12 10:41:49;;;;;;;;;;;;;;;30.49;42.56;94257.13;5009222;28;7195;-62
2023/07/12 10:44:23;;;;;;;;;;;;;;;30.49;41.73;94243.25;5009131;28;7492;-62
2023/07/12 10:47:04;;;;;;;;;;;;;;;30.50;42.21;94205.91;5012573;28;7200;-61
2023/07/12 10:49:56;;;;;;;;;;;;;;;30.50;42.68;94196.81;5029830;28;8828;-62
2023/07/12 10:52:53;;;;;;;;;;;;;;;30.48;41.88;94172.41;5030389;28;9043;-62
2023/07/12 10:55:47;;;;;;;;;;;;;;;30.50;41.42;94163.50;5044842;28;7109;-61
2023/07/12 10:58:41;;;;;;;;;;;;;;;30.48;42.23;94172.41;4989556;28;7172;-62
2023/07/12 11:01:41;;;;;;;;;;;;;;;30.48;41.59;94193.84;4991603;28;7223;-62
2023/07/12 11:04:36;;;;;;;;;;;;;;;30.47;41.56;94212.53;4975583;28;7881;-62
2023/07/12 11:07:27;;;;;;;;;;;;;;;30.47;42.26;94212.53;4973992;28;7196;-62
2023/07/12 11:09:54;;;;;;;;;;;;;;;30.47;42.55;94220.88;4990895;28;6996;-62
2023/07/12 11:12:53;;;;;;;;;;;;;;;30.48;42.03;94216.06;4986094;28;8546;-62
2023/07/12 11:16:08;;;;;;;;;;;;;;;30.48;42.34;94221.63;4923604;29;7089;-62
2023/07/12 11:18:37;;;;;;;;;;;;;;;30.47;42.37;94195.88;4923367;29;7157;-63
2023/07/12 11:21:53;;;;;;;;;;;;;;;30.47;42.09;94197.94;4900711;29;7200;-63
2023/07/12 11:24:36;;;;;;;;;;;;;;;30.45;41.78;94198.47;4917074;29;8464;-63
2023/07/12 11:27:02;;;;;;;;;;;;;;;30.46;41.52;94205.50;4900274;29;8487;-62
2023/07/12 11:29:46;;;;;;;;;;;;;;;30.45;42.51;94192.91;4923168;29;6986;-63
2023/07/12 11:32:58;;;;;;;;;;;;;;;30.47;41.38;94175.72;4922670;29;6966;-63
2023/07/12 11:35:43;;;;;;;;;;;;;;;30.47;41.77;94170.91;4946600;28;7203;-62
2023/07/12 11:38:41;;;;;;;;;;;;;;;30.46;42.58;94172.22;4952791;28;7430;-61
2023/07/12 11:41:22;;;;;;;;;;;;;;;30.48;41.92;94172.41;4959714;28;9102;-62
2023/07/12 11:44:14;;;;;;;;;;;;;;;30.48;41.74;94169.63;4952794;28;7477;-62
2023/07/12 11:46:44;;;;;;;;;;;;;;;30.45;42.15;94167.94;4960184;28;9123;-63
2023/07/12 11:49:20;;;;;;;;;;;;;;;30.47;41.56;94168.13;4934790;28;7248;-62
2023/07/12 11:51:56;;;;;;;;;;;;;;;30.45;42.28;94181.06;4963063;28;7003;-62
2023/07/12 11:54:34;;;;;;;;;;;;;;;30.46;41.28;94182.56;5031828;28;7216;-62
2023/07/12 11:57:14;;;;;;;;;;;;;;;30.48;41.78;94147.41;5030441;28;9180;-62
2023/07/12 11:59:47;;;;;;;;;;;;;;;30.49;41.99;94171.09;5032439;28;7176;-62
2023/07/12 12:02:47;;;;;;;;;;;;;;;30.50;41.86;94205.16;5015478;28;8454;-62
2023/07/12 12:05:20;;;;;;;;;;;;;;;30.49;41.74;94226.59;4928555;28;9092;-62
2023/07/12 12:07:52;;;;;;;;;;;;;;;30.46;41.61;94249.91;4945277;28;7451;-62
2023/07/12 12:10:41;;;;;;;;;;;;;;;30.47;41.75;94229.19;4962200;28;7105;-62
2023/07/12 12:13:41;;;;;;;;;;;;;;;30.48;41.56;94210.50;4960726;28;9391;-62
2023/07/12 12:16:21;;;;;;;;;;;;;;;30.49;42.44;94218.28;4933916;28;7434;-56
2023/07/12 12:19:18;;;;;;;;;;;;;;;30.49;42.15;94209.22;4960453;28;7271;-56
2023/07/12 12:22:12;;;;;;;;;;;;;;;30.49;41.63;94189.81;4942985;28;7305;-56
2023/07/12 12:25:03;;;;;;;;;;;;;;;30.51;42.32;94170.56;4945601;28;7021;-56
2023/07/12 12:27:42;;;;;;;;;;;;;;;30.50;42.22;94163.50;4943836;28;7259;-55
2023/07/12 12:30:55;;;;;;;;;;;;;;;30.49;42.33;94160.00;4961797;28;7364;-56
2023/07/12 12:33:48;;;;;;;;;;;;;;;30.48;40.97;94143.91;4960655;28;7213;-56
2023/07/12 12:36:31;;;;;;;;;;;;;;;30.51;41.53;94131.69;4939582;28;9216;-56
2023/07/12 12:39:09;;;;;;;;;;;;;;;30.51;41.01;94137.97;4959358;28;9247;-56
2023/07/12 12:41:39;;;;;;;;;;;;;;;30.51;42.04;94126.88;4985619;28;9084;-56
2023/07/12 12:44:11;;;;;;;;;;;;;;;30.50;42.06;94130.22;5013339;28;7043;-55
2023/07/12 12:46:55;;;;;;;;;;;;;;;30.51;41.00;94137.25;5021691;28;7232;-55
2023/07/12 12:49:37;;;;;;;;;;;;;;;30.52;40.89;94145.03;5013778;28;7160;-56
2023/07/12 12:53:01;;;;;;;;;;;;;;;30.54;41.89;94145.22;5014553;28;6997;-55
2023/07/12 12:55:28;;;;;;;;;;;;;;;30.56;42.02;94143.94;4955843;28;9223;-55
2023/07/12 12:57:57;;;;;;;;;;;;;;;30.54;41.58;94142.44;4977154;28;7600;-55
2023/07/12 13:00:27;;;;;;;;;;;;;;;30.56;42.13;94157.81;4979255;28;7374;-56
2023/07/12 13:02:53;;;;;;;;;;;;;;;30.57;41.42;94150.97;4972021;28;6990;-56
2023/07/12 13:05:23;;;;;;;;;;;;;;;30.58;42.01;94152.47;4980262;28;7169;-56
2023/07/12 13:08:05;;;;;;;;;;;;;;;30.57;42.25;94146.16;4962325;28;7210;-56
2023/07/12 13:10:31;;;;;;;;;;;;;;;30.59;42.20;94143.56;4963019;28;6993;-56
2023/07/12 13:13:14;;;;;;;;;;;;;;;30.60;41.49;94136.00;4961268;28;7251;-56
2023/07/12 13:15:56;;;;;;;;;;;;;;;30.59;41.86;94121.34;4976610;28;7187;-55
2023/07/12 13:18:25;;;;;;;;;;;;;;;30.63;41.24;94107.09;4960573;28;8497;-55
2023/07/12 13:21:18;;;;;;;;;;;;;;;30.64;41.76;94097.50;4976967;28;8691;-56
2023/07/12 13:23:50;;;;;;;;;;;;;;;30.64;41.60;94089.91;4962230;28;7278;-57
2023/07/12 13:26:37;;;;;;;;;;;;;;;30.65;42.06;94091.38;4974628;28;7540;-65
2023/07/12 13:29:17;;;;;;;;;;;;;;;30.65;42.68;94080.28;4965647;28;7262;-65
2023/07/12 13:32:18;;;;;;;;;;;;;;;30.65;42.49;94068.44;5025356;28;8141;-65
2023/07/12 13:34:47;;;;;;;;;;;;;;;30.63;42.68;94062.69;4950465;29;7171;-65
2023/07/12 13:37:40;;;;;;;;;;;;;;;30.66;43.09;94061.59;4951768;29;7252;-65
2023/07/12 13:40:26;;;;;;;;;;;;;;;30.68;43.39;94059.00;4951759;29;9377;-65
2023/07/12 13:43:01;;;;;;;;;;;;;;;30.68;43.06;94073.63;4950761;29;9108;-65
2023/07/12 13:45:29;;;;;;;;;;;;;;;30.69;43.30;94079.94;4931737;29;7492;-65
2023/07/12 13:47:58;;;;;;;;;;;;;;;30.67;42.94;94086.03;4947395;29;8539;-65
2023/07/12 13:50:24;;;;;;;;;;;;;;;30.70;43.13;94106.38;4939350;29;8136;-65
2023/07/12 13:52:52;;;;;;;;;;;;;;;30.71;43.30;94116.22;4947903;28;7804;-65
2023/07/12 13:55:19;;;;;;;;;;;;;;;30.71;42.88;94113.44;4948660;29;6994;-65
2023/07/12 13:57:46;;;;;;;;;;;;;;;30.70;42.90;94120.28;4948472;29;6967;-65
2023/07/12 14:00:20;;;;;;;;;;;;;;;30.68;43.33;94122.88;4949842;29;9032;-65